Time;durP1;ratioP1;P1;durP2;ratioP2;P2;SDS_P1;SDS_P2;PMS_P1;PMS_P2;Temp;Humidity;BMP_temperature;BMP_pressure;BME280_temperature;BME280_humidity;BME280_pressure;Samples;Min_cycle;Max_cycle;Signal;HPM_P1;HPM_P2
2024/01/15 00:01:50;;;;;;;16.25;10.78;;;;;;;0.15;100.00;98131.94;1719798;83;25441;-55
2024/01/15 00:04:16;;;;;;;16.05;10.25;;;;;;;0.15;100.00;98128.47;1719902;83;25445;-55
2024/01/15 00:06:42;;;;;;;14.45;9.95;;;;;;;0.15;100.00;98121.83;1719788;83;25596;-55
2024/01/15 00:09:10;;;;;;;18.10;10.53;;;;;;;0.15;100.00;98114.66;1719944;83;25527;-57
2024/01/15 00:11:37;;;;;;;18.15;10.50;;;;;;;0.16;100.00;98111.45;1719876;83;27397;-55
2024/01/15 00:14:03;;;;;;;17.02;9.93;;;;;;;0.16;100.00;98102.14;1719798;83;25383;-57
2024/01/15 00:16:29;;;;;;;17.67;10.05;;;;;;;0.16;100.00;98101.59;1719968;83;25562;-56
2024/01/15 00:18:55;;;;;;;16.52;10.53;;;;;;;0.17;100.00;98097.87;1719920;83;25564;-55
2024/01/15 00:21:21;;;;;;;16.07;10.68;;;;;;;0.20;100.00;98103.67;1719872;82;25459;-54
2024/01/15 00:23:47;;;;;;;17.48;11.28;;;;;;;0.18;100.00;98096.77;1719941;83;27392;-57
2024/01/15 00:26:14;;;;;;;18.55;10.35;;;;;;;0.20;100.00;98091.70;1719886;83;25579;-57
2024/01/15 00:28:40;;;;;;;16.37;10.75;;;;;;;0.20;100.00;98091.70;1719793;83;25372;-54
2024/01/15 00:31:07;;;;;;;13.58;9.35;;;;;;;0.21;100.00;98081.33;1719779;83;26666;-57
2024/01/15 00:33:33;;;;;;;15.55;9.88;;;;;;;0.22;100.00;98070.92;1719215;83;25950;-56
2024/01/15 00:35:59;;;;;;;23.73;11.18;;;;;;;0.22;100.00;98078.35;1719884;83;27440;-57
2024/01/15 00:38:26;;;;;;;18.27;11.12;;;;;;;0.21;100.00;98071.48;1719793;83;26031;-54
2024/01/15 00:40:52;;;;;;;19.75;11.10;;;;;;;0.22;100.00;98070.92;1719861;83;25458;-57
2024/01/15 00:43:19;;;;;;;18.05;11.43;;;;;;;0.21;100.00;98063.50;1719818;83;25629;-56
2024/01/15 00:45:48;;;;;;;20.43;11.73;;;;;;;0.23;100.00;98058.67;1720133;83;25582;-57
2024/01/15 00:48:16;;;;;;;18.17;11.88;;;;;;;0.22;100.00;98048.33;1719939;83;27298;-54
2024/01/15 00:50:43;;;;;;;24.50;12.30;;;;;;;0.22;100.00;98043.78;1720077;83;25935;-56
2024/01/15 00:53:09;;;;;;;24.23;12.53;;;;;;;0.23;100.00;98048.03;1720056;83;25676;-57
2024/01/15 00:55:37;;;;;;;19.65;12.30;;;;;;;0.23;100.00;98047.25;1719993;83;25615;-53
2024/01/15 00:58:05;;;;;;;20.15;12.10;;;;;;;0.23;100.00;98038.73;1720065;83;25409;-53
2024/01/15 01:00:31;;;;;;;18.82;11.53;;;;;;;0.21;100.00;98040.90;1720042;83;27404;-54
2024/01/15 01:02:57;;;;;;;20.50;11.63;;;;;;;0.22;100.00;98035.03;1719958;82;25575;-55
2024/01/15 01:05:25;;;;;;;21.25;12.75;;;;;;;0.21;100.00;98026.27;1719998;83;25480;-56
2024/01/15 01:07:52;;;;;;;18.65;12.20;;;;;;;0.20;100.00;98015.38;1719914;81;25694;-56
2024/01/15 01:10:18;;;;;;;21.40;13.20;;;;;;;0.20;100.00;98021.25;1719994;83;25487;-53
2024/01/15 01:12:46;;;;;;;17.92;12.07;;;;;;;0.18;100.00;98011.69;1720039;83;27324;-56
2024/01/15 01:15:12;;;;;;;21.25;12.13;;;;;;;0.17;100.00;98005.33;1719884;82;25609;-56
2024/01/15 01:17:38;;;;;;;20.90;12.63;;;;;;;0.18;100.00;98013.56;1719988;83;25438;-53
2024/01/15 01:20:08;;;;;;;18.87;11.97;;;;;;;0.15;100.00;97999.53;1718570;82;26318;-55
2024/01/15 01:22:37;;;;;;;22.45;13.58;;;;;;;0.15;100.00;98006.17;1694728;84;25431;-56
2024/01/15 01:25:06;;;;;;;15.40;9.68;;;;;;;0.11;100.00;98002.55;1694790;84;27339;-55
2024/01/15 01:27:35;;;;;;;;;;;;;;;0.10;100.00;98003.62;1697058;84;25403;-54
2024/01/15 01:30:03;;;;;;;22.37;12.20;;;;;;;0.08;100.00;97991.17;1694625;84;25661;-54
2024/01/15 01:32:32;;;;;;;20.32;13.30;;;;;;;0.07;100.00;97993.56;1694591;84;25572;-54
2024/01/15 01:35:00;;;;;;;24.25;13.72;;;;;;;0.07;100.00;97987.73;1694833;84;25473;-55
2024/01/15 01:37:26;;;;;;;20.32;13.22;;;;;;;0.06;100.00;97990.13;1694622;84;27392;-54
2024/01/15 01:39:54;;;;;;;21.62;13.43;;;;;;;0.07;100.00;97978.43;1694547;84;25470;-54
2024/01/15 01:42:20;;;;;;;22.93;14.40;;;;;;;0.06;100.00;97985.37;1694563;84;25452;-56
2024/01/15 01:44:46;;;;;;;24.27;14.45;;;;;;;0.04;100.00;97984.33;1694601;84;25406;-56
2024/01/15 01:47:15;;;;;;;22.40;13.10;;;;;;;0.04;100.00;97983.55;1694564;84;25472;-57
2024/01/15 01:49:45;;;;;;;23.02;14.98;;;;;;;0.02;100.00;97981.19;1694770;84;28152;-54
2024/01/15 01:52:14;;;;;;;26.48;14.90;;;;;;;0.00;100.00;97975.39;1694633;84;25392;-51
2024/01/15 01:54:43;;;;;;;21.25;13.60;;;;;;;-0.01;100.00;97970.59;1694731;84;25468;-52
2024/01/15 01:57:12;;;;;;;25.85;14.28;;;;;;;-0.01;100.00;97971.92;1694638;84;25635;-53
2024/01/15 01:59:40;;;;;;;28.20;16.20;;;;;;;-0.02;100.00;97969.03;1694757;84;25430;-52
2024/01/15 02:02:08;;;;;;;27.10;15.20;;;;;;;-0.02;100.00;97965.05;1694859;84;27346;-52
2024/01/15 02:04:37;;;;;;;23.30;13.83;;;;;;;-0.02;100.00;97954.94;1694485;84;25797;-51
2024/01/15 02:07:06;;;;;;;24.52;14.58;;;;;;;-0.03;100.00;97956.81;1694786;84;32369;-52
2024/01/15 02:09:32;;;;;;;24.80;13.90;;;;;;;-0.02;100.00;97958.92;1694844;84;25623;-54
2024/01/15 02:12:00;;;;;;;25.90;14.75;;;;;;;-0.02;100.00;97957.07;1694584;84;25533;-52
2024/01/15 02:14:26;;;;;;;24.70;14.13;;;;;;;-0.01;100.00;97956.52;1668982;84;26870;-52
2024/01/15 02:16:53;;;;;;;24.18;15.28;;;;;;;-0.01;100.00;97949.33;1694506;84;25600;-55
2024/01/15 02:19:19;;;;;;;22.93;14.83;;;;;;;-0.01;100.00;97945.89;1694631;84;25490;-55
2024/01/15 02:21:47;;;;;;;24.35;15.32;;;;;;;-0.02;100.00;97941.13;1709812;82;25747;-55
2024/01/15 02:24:15;;;;;;;32.23;18.30;;;;;;;0.00;100.00;97940.83;1719978;83;25612;-51
2024/01/15 02:26:44;;;;;;;30.80;18.23;;;;;;;0.00;100.00;97940.83;1719976;83;27492;-52
2024/01/15 02:29:12;;;;;;;39.08;19.77;;;;;;;-0.01;100.00;97933.93;1719861;83;25940;-52
2024/01/15 02:31:40;;;;;;;32.42;19.00;;;;;;;0.02;100.00;97937.85;1719934;83;25544;-52
2024/01/15 02:34:08;;;;;;;30.52;18.07;;;;;;;-0.03;100.00;97927.58;1719931;83;25628;-55
2024/01/15 02:36:34;;;;;;;33.75;19.85;;;;;;;0.02;100.00;97928.55;1719990;83;25410;-54
2024/01/15 02:39:00;;;;;;;31.90;19.25;;;;;;;0.03;100.00;97918.17;1719943;83;27317;-54
2024/01/15 02:41:26;;;;;;;29.65;17.48;;;;;;;0.03;100.00;97920.28;1719841;83;25996;-55
2024/01/15 02:43:52;;;;;;;27.80;17.17;;;;;;;0.03;100.00;97912.30;1719916;82;25518;-52
2024/01/15 02:46:19;;;;;;;29.70;18.00;;;;;;;0.04;100.00;97921.87;1719863;83;25685;-56
2024/01/15 02:48:47;;;;;;;36.05;18.02;;;;;;;0.04;100.00;97909.91;1719897;83;25624;-54
2024/01/15 02:51:13;;;;;;;26.87;16.45;;;;;;;0.04;100.00;97911.78;1719930;83;28149;-54
2024/01/15 02:53:39;;;;;;;30.68;16.85;;;;;;;0.05;100.00;97905.36;1719881;83;25395;-53
2024/01/15 02:56:08;;;;;;;27.20;15.63;;;;;;;0.05;100.00;97902.70;1719925;83;25636;-55
2024/01/15 02:58:34;;;;;;;25.62;15.53;;;;;;;0.05;100.00;97899.53;1719962;83;25615;-52
2024/01/15 03:01:00;;;;;;;25.37;15.00;;;;;;;0.07;100.00;97896.55;1719939;83;25388;-56
2024/01/15 03:03:26;;;;;;;22.52;14.65;;;;;;;0.06;100.00;97881.70;1719925;83;27491;-56
2024/01/15 03:05:53;;;;;;;27.37;15.35;;;;;;;0.06;100.00;97873.72;1719856;83;25455;-55
2024/01/15 03:08:19;;;;;;;24.82;15.35;;;;;;;0.05;100.00;97872.95;1719843;83;25486;-53
2024/01/15 03:10:45;;;;;;;28.35;16.42;;;;;;;0.06;100.00;97868.41;1719859;83;25654;-54
2024/01/15 03:13:11;;;;;;;24.25;14.63;;;;;;;0.06;100.00;97874.50;1719956;83;25407;-55
2024/01/15 03:15:37;;;;;;;26.12;14.98;;;;;;;0.06;100.00;97867.08;1719926;83;28319;-55
2024/01/15 03:18:06;;;;;;;24.72;15.13;;;;;;;0.05;100.00;97867.63;1719814;83;25676;-52
2024/01/15 03:20:34;;;;;;;23.27;15.20;;;;;;;0.05;100.00;97856.19;1720114;83;25431;-56
2024/01/15 03:23:00;;;;;;;25.30;14.98;;;;;;;0.06;100.00;97851.13;1719799;83;27817;-56
2024/01/15 03:25:26;;;;;;;28.10;15.70;;;;;;;0.04;100.00;97841.34;1719946;83;25659;-56
2024/01/15 03:27:52;;;;;;;25.72;14.63;;;;;;;0.04;100.00;97842.67;1719902;83;27406;-55
2024/01/15 03:30:19;;;;;;;23.45;15.10;;;;;;;0.02;100.00;97841.64;1719877;83;25651;-53
2024/01/15 03:32:47;;;;;;;26.87;16.23;;;;;;;0.02;100.00;97838.98;1719949;83;25578;-56
2024/01/15 03:35:15;;;;;;;27.75;14.90;;;;;;;0.01;100.00;97838.73;1719901;83;25613;-53
2024/01/15 03:37:41;;;;;;;25.45;15.05;;;;;;;0.01;100.00;97828.09;1720022;83;25406;-55
2024/01/15 03:40:12;;;;;;;24.82;14.30;;;;;;;-0.01;100.00;97828.39;1719917;82;27945;-53
2024/01/15 03:42:38;;;;;;;26.30;14.73;;;;;;;-0.01;100.00;97827.62;1719869;83;25631;-53
2024/01/15 03:45:07;;;;;;;30.02;15.75;;;;;;;-0.03;100.00;97831.13;1719927;83;25603;-52
2024/01/15 03:47:34;;;;;;;28.40;15.13;;;;;;;-0.06;100.00;97822.41;1719999;83;25676;-52
2024/01/15 03:50:00;;;;;;;24.75;14.35;;;;;;;-0.08;100.00;97828.58;1719915;83;25575;-54
2024/01/15 03:52:26;;;;;;;26.73;15.38;;;;;;;-0.11;100.00;97823.30;1719891;83;27315;-52
2024/01/15 03:54:52;;;;;;;29.95;15.58;;;;;;;-0.13;100.00;97820.16;1719773;83;25732;-52
2024/01/15 03:57:18;;;;;;;27.00;15.70;;;;;;;-0.13;100.00;97822.05;1719850;82;25556;-52
2024/01/15 03:59:47;;;;;;;24.63;15.15;;;;;;;-0.14;100.00;97819.13;1719927;83;26549;-54
2024/01/15 04:02:12;;;;;;;28.80;15.28;;;;;;;-0.16;100.00;97804.03;1719572;83;25556;-51
2024/01/15 04:04:43;;;;;;;28.90;15.13;;;;;;;-0.16;100.00;97806.14;1719843;83;27389;-52
2024/01/15 04:07:11;;;;;;;27.60;15.40;;;;;;;-0.16;100.00;97795.52;1719867;83;25505;-52
2024/01/15 04:09:40;;;;;;;29.45;15.98;;;;;;;-0.17;100.00;97801.92;1719821;83;25601;-51
2024/01/15 04:12:08;;;;;;;27.80;16.17;;;;;;;-0.17;100.00;97799.27;1720129;83;25753;-55
2024/01/15 04:14:35;;;;;;;29.50;16.42;;;;;;;-0.17;100.00;97794.48;1719930;83;25564;-52
2024/01/15 04:17:01;;;;;;;29.77;15.50;;;;;;;-0.18;100.00;97795.58;1719830;83;27405;-52
2024/01/15 04:19:27;;;;;;;28.12;15.48;;;;;;;-0.20;100.00;97782.04;1719841;83;25581;-56
2024/01/15 04:21:53;;;;;;;30.62;16.12;;;;;;;-0.18;100.00;97771.67;1721732;83;25616;-56
2024/01/15 04:24:20;;;;;;;25.25;14.68;;;;;;;-0.20;100.00;97760.78;1725105;82;25636;-56
2024/01/15 04:26:46;;;;;;;27.85;15.80;;;;;;;-0.21;100.00;97764.52;1725108;83;25463;-56
2024/01/15 04:29:12;;;;;;;23.92;14.73;;;;;;;-0.21;100.00;97761.86;1725089;83;27351;-56
2024/01/15 04:31:38;;;;;;;21.93;13.55;;;;;;;-0.21;100.00;97755.77;1725037;83;25549;-56
2024/01/15 04:34:04;;;;;;;29.10;14.80;;;;;;;-0.21;100.00;97747.24;1725131;83;25391;-51
2024/01/15 04:36:31;;;;;;;26.50;15.18;;;;;;;-0.21;100.00;97740.60;1725031;83;25629;-54
2024/01/15 04:38:57;;;;;;;24.70;14.47;;;;;;;-0.22;100.00;97744.36;1725027;83;25603;-53
2024/01/15 04:41:23;;;;;;;25.80;14.90;;;;;;;-0.21;100.00;97737.17;1724993;83;27340;-52
2024/01/15 04:43:50;;;;;;;25.62;14.45;;;;;;;-0.22;100.00;97731.08;1724981;83;25390;-53
2024/01/15 04:46:16;;;;;;;28.38;14.23;;;;;;;-0.22;100.00;97731.08;1725055;83;25576;-53
2024/01/15 04:48:42;;;;;;;26.62;15.05;;;;;;;-0.22;100.00;97728.97;1724916;83;25711;-53
2024/01/15 04:51:10;;;;;;;24.65;14.25;;;;;;;-0.22;100.00;97724.98;1725068;83;25651;-53
2024/01/15 04:53:39;;;;;;;23.45;13.85;;;;;;;-0.21;100.00;97725.21;1725146;81;27690;-53
2024/01/15 04:56:06;;;;;;;26.68;14.93;;;;;;;-0.22;100.00;97723.11;1724940;83;25632;-54
2024/01/15 04:58:33;;;;;;;23.40;13.83;;;;;;;-0.21;100.00;97725.21;1724980;83;25552;-53
2024/01/15 05:00:59;;;;;;;22.65;13.28;;;;;;;-0.22;100.00;97726.31;1724958;82;27904;-52
2024/01/15 05:03:27;;;;;;;23.50;14.33;;;;;;;-0.23;100.00;97718.87;1725077;83;25391;-53
2024/01/15 05:05:53;;;;;;;26.57;13.22;;;;;;;-0.23;100.00;97700.27;1724998;83;27522;-52
2024/01/15 05:08:19;;;;;;;24.40;14.25;;;;;;;-0.23;100.00;97715.44;1724940;83;25442;-52
2024/01/15 05:10:49;;;;;;;26.70;14.30;;;;;;;-0.23;100.00;97710.90;1725048;83;25466;-55
2024/01/15 05:13:18;;;;;;;27.50;14.65;;;;;;;-0.25;100.00;97698.47;1724981;83;25663;-53
2024/01/15 05:15:44;;;;;;;27.87;14.87;;;;;;;-0.23;100.00;97698.16;1725045;83;25501;-54
2024/01/15 05:18:10;;;;;;;23.25;13.90;;;;;;;-0.22;100.00;97700.53;1724976;83;29443;-53
2024/01/15 05:20:36;;;;;;;24.40;14.78;;;;;;;-0.21;100.00;97698.09;1724936;83;25589;-52
2024/01/15 05:23:05;;;;;;;27.10;14.45;;;;;;;-0.21;100.00;97702.08;1702721;82;25552;-53
2024/01/15 05:25:31;;;;;;;25.15;14.00;;;;;;;-0.20;100.00;97694.36;1694428;84;25628;-52
2024/01/15 05:28:01;;;;;;;24.32;14.40;;;;;;;-0.18;100.00;97700.70;1694576;84;25620;-52
2024/01/15 05:30:27;;;;;;;24.72;14.33;;;;;;;-0.17;100.00;97698.83;1694535;84;27355;-52
2024/01/15 05:32:55;;;;;;;23.75;13.88;;;;;;;-0.18;100.00;97704.69;1694545;84;25482;-53
2024/01/15 05:35:21;;;;;;;22.37;12.95;;;;;;;-0.16;100.00;97697.75;1694621;84;25162;-52
2024/01/15 05:37:48;;;;;;;24.00;13.32;;;;;;;-0.17;100.00;97694.84;1694577;84;25715;-55
2024/01/15 05:40:14;;;;;;;23.80;14.38;;;;;;;-0.14;100.00;97699.55;1694663;84;25606;-56
2024/01/15 05:42:43;;;;;;;25.52;14.65;;;;;;;-0.16;100.00;97698.53;1694664;84;27400;-56
2024/01/15 05:45:10;;;;;;;24.20;14.33;;;;;;;-0.15;100.00;97693.98;1694540;84;25482;-57
2024/01/15 05:47:36;;;;;;;25.70;14.00;;;;;;;-0.15;100.00;97704.09;1694667;84;25473;-53
2024/01/15 05:50:05;;;;;;;23.42;13.78;;;;;;;-0.14;100.00;97700.33;1694633;84;25527;-52
2024/01/15 05:52:31;;;;;;;22.50;13.53;;;;;;;-0.13;100.00;97706.45;1694798;84;25428;-53
2024/01/15 05:55:01;;;;;;;26.57;14.68;;;;;;;-0.13;100.00;97694.50;1694562;84;27383;-53
2024/01/15 05:57:29;;;;;;;23.60;14.30;;;;;;;-0.13;100.00;97693.16;1694799;84;25711;-57
2024/01/15 05:59:55;;;;;;;22.87;12.82;;;;;;;-0.13;100.00;97695.27;1694590;84;25569;-53
2024/01/15 06:02:21;;;;;;;22.13;13.75;;;;;;;-0.13;100.00;97690.51;1694560;84;26376;-53
2024/01/15 06:04:48;;;;;;;20.77;12.82;;;;;;;-0.12;100.00;97693.39;1694580;84;25516;-54
2024/01/15 06:07:14;;;;;;;25.72;14.60;;;;;;;-0.12;100.00;97690.73;1694612;84;27312;-52
2024/01/15 06:09:40;;;;;;;25.35;13.68;;;;;;;-0.12;100.00;97697.38;1694507;84;25637;-52
2024/01/15 06:12:08;;;;;;;22.55;13.83;;;;;;;-0.13;100.00;97683.31;1694610;84;25675;-53
2024/01/15 06:14:34;;;;;;;21.15;13.22;;;;;;;-0.16;100.00;97682.58;1694494;84;25679;-53
2024/01/15 06:17:01;;;;;;;23.00;13.38;;;;;;;-0.12;100.00;97684.89;1694629;84;25389;-55
2024/01/15 06:19:27;;;;;;;23.95;13.08;;;;;;;-0.12;100.00;97677.45;1694530;84;28005;-56
2024/01/15 06:21:53;;;;;;;21.05;13.38;;;;;;;-0.10;100.00;97681.91;1694407;83;26077;-53
2024/01/15 06:24:20;;;;;;;20.88;13.22;;;;;;;-0.11;100.00;97675.82;1694696;84;25653;-56
2024/01/15 06:26:49;;;;;;;20.72;13.13;;;;;;;-0.10;100.00;97678.73;1694577;84;25657;-55
2024/01/15 06:29:16;;;;;;;20.97;13.65;;;;;;;-0.12;100.00;97673.46;1694576;84;25458;-54
2024/01/15 06:31:42;;;;;;;22.37;13.15;;;;;;;-0.11;100.00;97680.36;1694594;84;27407;-54
2024/01/15 06:34:08;;;;;;;19.55;13.15;;;;;;;-0.10;100.00;97667.30;1694524;84;25629;-55
2024/01/15 06:36:34;;;;;;;22.77;13.60;;;;;;;-0.10;100.00;97663.31;1694597;84;25605;-55
2024/01/15 06:39:00;;;;;;;21.40;13.32;;;;;;;-0.10;100.00;97655.34;1694508;84;25696;-53
2024/01/15 06:41:28;;;;;;;23.40;13.38;;;;;;;-0.10;100.00;97645.52;1694560;84;25528;-52
2024/01/15 06:43:55;;;;;;;18.52;11.93;;;;;;;-0.09;100.00;97647.06;1694542;84;27413;-55
2024/01/15 06:46:23;;;;;;;19.87;11.73;;;;;;;-0.09;100.00;97648.39;1694499;84;25560;-52
2024/01/15 06:48:51;;;;;;;22.02;12.68;;;;;;;-0.08;100.00;97660.61;1694556;84;25673;-55
2024/01/15 06:51:17;;;;;;;19.52;13.83;;;;;;;-0.09;100.00;97664.89;1694530;84;25623;-53
2024/01/15 06:53:45;;;;;;;19.77;12.80;;;;;;;-0.09;100.00;97660.35;1694589;84;25588;-52
2024/01/15 06:56:12;;;;;;;22.95;13.28;;;;;;;-0.10;100.00;97655.34;1694582;84;27265;-55
2024/01/15 06:58:38;;;;;;;22.87;13.10;;;;;;;-0.10;100.00;97660.13;1694481;84;25605;-56
2024/01/15 07:01:06;;;;;;;17.67;12.37;;;;;;;-0.09;100.00;97652.38;1694553;84;25430;-55
2024/01/15 07:03:32;;;;;;;20.95;13.32;;;;;;;-0.09;100.00;97649.72;1694546;84;25961;-54
2024/01/15 07:05:58;;;;;;;22.60;13.22;;;;;;;-0.10;100.00;97644.19;1691118;84;25472;-52
2024/01/15 07:08:24;;;;;;;23.18;13.72;;;;;;;-0.09;100.00;97651.05;1694584;84;27338;-56
2024/01/15 07:10:51;;;;;;;23.85;14.05;;;;;;;-0.07;100.00;97652.88;1694523;84;25492;-53
2024/01/15 07:13:19;;;;;;;20.50;13.15;;;;;;;-0.07;100.00;97654.22;1694540;84;25496;-52
2024/01/15 07:15:45;;;;;;;20.35;13.13;;;;;;;-0.09;100.00;97648.39;1694549;84;25587;-52
2024/01/15 07:18:11;;;;;;;20.08;13.43;;;;;;;-0.05;100.00;97653.36;1694595;84;25408;-52
2024/01/15 07:20:37;;;;;;;21.20;13.15;;;;;;;-0.05;100.00;97660.00;1694565;84;27326;-51
2024/01/15 07:23:06;;;;;;;20.25;13.10;;;;;;;-0.04;100.00;97658.12;1706723;82;27218;-53
2024/01/15 07:25:33;;;;;;;24.75;13.75;;;;;;;-0.07;100.00;97647.57;1720049;83;25471;-52
2024/01/15 07:27:59;;;;;;;20.95;12.58;;;;;;;-0.06;100.00;97661.63;1719890;83;25640;-53
2024/01/15 07:30:25;;;;;;;20.92;13.22;;;;;;;-0.08;100.00;97647.31;1719927;83;25542;-53
2024/01/15 07:32:52;;;;;;;19.82;13.48;;;;;;;-0.09;100.00;97644.95;1719855;83;27386;-53
2024/01/15 07:35:19;;;;;;;19.67;12.45;;;;;;;-0.09;100.00;97660.35;1719843;83;25710;-54
2024/01/15 07:37:45;;;;;;;19.37;12.88;;;;;;;-0.10;100.00;97662.78;1719904;83;25549;-54
2024/01/15 07:40:12;;;;;;;18.85;12.33;;;;;;;-0.11;100.00;97658.55;1719810;83;25621;-54
2024/01/15 07:42:40;;;;;;;19.25;12.13;;;;;;;-0.10;100.00;97664.11;1719926;83;25438;-55
2024/01/15 07:45:08;;;;;;;21.55;13.35;;;;;;;-0.11;100.00;97679.80;1719860;83;27396;-54
2024/01/15 07:47:35;;;;;;;20.48;12.53;;;;;;;-0.13;100.00;97661.28;1719946;83;25650;-52
2024/01/15 07:50:04;;;;;;;22.77;13.18;;;;;;;-0.15;100.00;97652.80;1719829;83;25403;-53
2024/01/15 07:52:32;;;;;;;20.57;13.05;;;;;;;-0.18;100.00;97671.48;1720011;83;25585;-57
2024/01/15 07:55:03;;;;;;;20.65;12.93;;;;;;;-0.19;100.00;97657.94;1719969;83;25627;-56
2024/01/15 07:57:31;;;;;;;21.35;13.32;;;;;;;-0.20;100.00;97663.03;1719960;83;27713;-53
2024/01/15 07:59:57;;;;;;;20.43;12.68;;;;;;;-0.18;100.00;97662.17;1719827;83;25620;-52
2024/01/15 08:02:23;;;;;;;23.65;12.80;;;;;;;-0.19;100.00;97657.94;1719917;83;25638;-56
2024/01/15 08:04:49;;;;;;;21.37;12.60;;;;;;;-0.18;100.00;97666.16;1719836;83;25654;-56
2024/01/15 08:07:17;;;;;;;19.75;11.90;;;;;;;-0.18;100.00;97658.75;1719924;83;25629;-54
2024/01/15 08:09:47;;;;;;;21.85;11.70;;;;;;;-0.18;100.00;97660.85;1719873;83;27325;-54
2024/01/15 08:12:14;;;;;;;21.25;12.65;;;;;;;-0.17;100.00;97657.12;1719749;83;25806;-53
2024/01/15 08:14:41;;;;;;;19.98;12.73;;;;;;;-0.15;100.00;97644.83;1719910;83;25595;-52
2024/01/15 08:17:08;;;;;;;21.07;13.10;;;;;;;-0.15;100.00;97646.16;1719854;83;25798;-54
2024/01/15 08:19:34;;;;;;;20.37;12.07;;;;;;;-0.13;100.00;97634.71;1719918;83;25619;-55
2024/01/15 08:22:03;;;;;;;22.00;12.13;;;;;;;-0.12;100.00;97637.59;1719864;83;27898;-53
2024/01/15 08:24:29;;;;;;;20.43;11.53;;;;;;;-0.09;100.00;97642.30;1724752;83;25474;-54
2024/01/15 08:26:56;;;;;;;18.70;10.98;;;;;;;-0.10;100.00;97657.47;1724955;83;25583;-53
2024/01/15 08:29:24;;;;;;;18.00;10.88;;;;;;;-0.08;100.00;97645.21;1725057;83;25670;-54
2024/01/15 08:31:51;;;;;;;20.65;11.50;;;;;;;-0.09;100.00;97653.70;1725070;83;25449;-55
2024/01/15 08:34:17;;;;;;;18.25;12.03;;;;;;;-0.07;100.00;97661.37;1725002;83;27408;-52
2024/01/15 08:36:44;;;;;;;20.17;11.38;;;;;;;-0.08;100.00;97652.63;1724920;83;27274;-53
2024/01/15 08:39:11;;;;;;;18.20;11.45;;;;;;;-0.04;100.00;97656.80;1725023;83;25519;-53
2024/01/15 08:41:39;;;;;;;15.70;10.28;;;;;;;-0.03;100.00;97669.01;1725044;83;25621;-54
2024/01/15 08:44:07;;;;;;;20.17;10.45;;;;;;;-0.01;100.00;97647.67;1725082;83;25624;-55
2024/01/15 08:46:33;;;;;;;16.77;11.05;;;;;;;0.04;100.00;97658.72;1725119;83;27340;-54
2024/01/15 08:48:59;;;;;;;16.45;10.35;;;;;;;0.09;100.00;97664.47;1724907;83;25596;-54
2024/01/15 08:51:26;;;;;;;32.60;19.87;;;;;;;0.15;100.00;97644.63;1725115;83;25451;-55
2024/01/15 08:53:54;;;;;;;20.40;11.80;;;;;;;0.21;100.00;97663.36;1725121;83;26601;-53
2024/01/15 08:56:20;;;;;;;19.98;12.98;;;;;;;0.32;100.00;97666.53;1725175;83;25389;-54
2024/01/15 08:58:46;;;;;;;14.38;9.65;;;;;;;0.43;100.00;97658.53;1725020;83;27346;-54
2024/01/15 09:01:12;;;;;;;15.63;9.63;;;;;;;0.52;100.00;97666.55;1724979;83;25755;-54
2024/01/15 09:03:44;;;;;;;16.07;10.38;;;;;;;0.53;100.00;97665.47;1724996;83;25624;-55
2024/01/15 09:06:12;;;;;;;13.68;9.95;;;;;;;0.53;100.00;97661.48;1725161;83;25630;-53
2024/01/15 09:08:38;;;;;;;16.48;10.60;;;;;;;0.53;100.00;97669.46;1725215;83;25624;-56
2024/01/15 09:11:06;;;;;;;18.52;10.38;;;;;;;0.51;100.00;97667.10;1725137;83;27325;-53
2024/01/15 09:13:32;;;;;;;14.60;9.95;;;;;;;0.51;100.00;97667.63;1725031;83;25663;-55
2024/01/15 09:16:00;;;;;;;16.42;10.43;;;;;;;0.50;100.00;97681.48;1725164;83;25400;-54
2024/01/15 09:18:27;;;;;;;15.80;9.75;;;;;;;0.52;100.00;97681.95;1725288;83;26139;-55
2024/01/15 09:20:55;;;;;;;13.70;10.05;;;;;;;0.53;100.00;97678.22;1725285;83;25411;-54
2024/01/15 09:23:23;;;;;;;15.38;10.40;;;;;;;0.50;100.00;97678.05;1714365;82;27430;-53
2024/01/15 09:25:49;;;;;;;15.35;10.28;;;;;;;0.49;100.00;97664.50;1694623;84;25571;-52
2024/01/15 09:28:15;;;;;;;16.82;9.95;;;;;;;0.52;100.00;97673.20;1694710;84;25425;-55
2024/01/15 09:30:42;;;;;;;13.40;9.60;;;;;;;0.49;100.00;97683.12;1694656;84;25589;-55
2024/01/15 09:33:10;;;;;;;15.60;10.30;;;;;;;0.57;100.00;97674.95;1694716;84;25611;-55
2024/01/15 09:35:36;;;;;;;14.70;9.20;;;;;;;0.60;100.00;97669.02;1694656;84;27064;-54
2024/01/15 09:38:05;;;;;;;18.15;10.32;;;;;;;0.66;100.00;97675.20;1694628;84;25622;-55
2024/01/15 09:40:36;;;;;;;15.72;10.18;;;;;;;0.69;100.00;97667.94;1694710;84;25638;-53
2024/01/15 09:43:05;;;;;;;14.53;9.55;;;;;;;0.73;100.00;97659.59;1694222;84;26211;-55
2024/01/15 09:45:33;;;;;;;15.32;9.93;;;;;;;0.85;100.00;97660.86;1694721;84;25405;-55
2024/01/15 09:48:01;;;;;;;14.33;9.75;;;;;;;1.06;100.00;97657.88;1694630;84;27332;-57
2024/01/15 09:50:27;;;;;;;14.20;9.20;;;;;;;1.08;100.00;97657.56;1694623;84;25560;-55
2024/01/15 09:52:57;;;;;;;13.62;8.88;;;;;;;1.07;100.00;97666.64;1694690;84;25586;-56
2024/01/15 09:55:26;;;;;;;13.03;7.87;;;;;;;1.05;100.00;97659.52;1694620;84;25634;-55
2024/01/15 09:57:55;;;;;;;14.78;8.55;;;;;;;1.10;100.00;97657.48;1694607;84;25574;-55
2024/01/15 10:00:24;;;;;;;11.78;7.22;;;;;;;1.21;100.00;97674.48;1694700;84;27440;-56
2024/01/15 10:02:52;;;;;;;11.73;7.42;;;;;;;1.25;100.00;97647.48;1694751;84;25607;-56
2024/01/15 10:05:18;;;;;;;10.88;6.33;;;;;;;1.23;97.12;97653.68;1694623;84;25648;-56
2024/01/15 10:07:50;;;;;;;11.25;6.97;;;;;;;1.17;97.79;97639.71;1694540;84;26627;-54
2024/01/15 10:10:16;;;;;;;8.58;5.92;;;;;;;1.11;95.73;97644.97;1694637;84;25480;-56
2024/01/15 10:12:43;;;;;;;14.58;7.33;;;;;;;1.04;96.34;97644.62;1694605;84;28131;-56
2024/01/15 10:15:13;;;;;;;11.05;6.45;;;;;;;1.00;97.62;97641.80;1694518;84;25412;-55
2024/01/15 10:17:41;;;;;;;11.18;7.03;;;;;;;0.96;96.51;97640.09;1694563;84;25401;-57
2024/01/15 10:20:12;;;;;;;9.88;7.05;;;;;;;0.93;97.58;97643.58;1694557;84;26475;-57
2024/01/15 10:22:46;;;;;;;12.40;7.20;;;;;;;0.93;97.09;97634.82;1694713;84;25614;-56
2024/01/15 10:25:16;;;;;;;8.95;5.87;;;;;;;0.93;97.63;97639.59;1719404;83;27338;-56
2024/01/15 10:27:44;;;;;;;10.72;6.25;;;;;;;0.90;97.20;97642.09;1719929;83;25463;-57
2024/01/15 10:30:14;;;;;;;10.65;6.08;;;;;;;0.92;96.77;97639.38;1719937;83;25494;-56
2024/01/15 10:32:41;;;;;;;9.13;6.17;;;;;;;0.96;97.68;97650.73;1720025;83;25630;-58
2024/01/15 10:35:11;;;;;;;11.05;6.47;;;;;;;0.96;95.67;97653.39;1720003;83;25651;-56
2024/01/15 10:37:37;;;;;;;11.12;5.95;;;;;;;0.95;96.71;97649.93;1691667;83;27381;-54
2024/01/15 10:40:07;;;;;;;11.95;6.22;;;;;;;0.93;96.46;97652.90;1719968;83;25388;-54
2024/01/15 10:42:36;;;;;;;10.32;6.35;;;;;;;0.86;94.51;97649.91;1720041;83;25573;-59
2024/01/15 10:45:08;;;;;;;13.62;6.80;;;;;;;0.90;95.58;97650.88;1719983;83;25615;-56
2024/01/15 10:47:37;;;;;;;13.98;6.67;;;;;;;0.90;95.65;97654.06;1720060;83;25224;-56
2024/01/15 10:50:08;;;;;;;12.37;7.45;;;;;;;0.92;96.43;97662.00;1720069;83;27813;-57
2024/01/15 10:52:43;;;;;;;11.48;6.45;;;;;;;0.92;96.43;97662.00;1719937;83;25233;-55
2024/01/15 10:55:12;;;;;;;11.68;6.12;;;;;;;0.82;95.56;97651.64;1720024;83;25411;-57
2024/01/15 10:57:40;;;;;;;12.00;6.75;;;;;;;0.84;95.94;97633.48;1720166;83;25442;-57
2024/01/15 11:00:14;;;;;;;22.42;14.98;;;;;;;0.87;95.75;97640.05;1720129;83;25558;-54
2024/01/15 11:02:42;;;;;;;11.85;7.22;;;;;;;0.93;95.99;97648.13;1719864;83;27342;-55
2024/01/15 11:05:09;;;;;;;11.70;6.60;;;;;;;0.96;95.43;97650.18;1720032;83;25547;-51
2024/01/15 11:07:39;;;;;;;12.58;6.42;;;;;;;0.98;95.20;97643.99;1719939;83;25653;-49
2024/01/15 11:10:46;;;;;;;13.88;7.85;;;;;;;1.03;96.28;97653.72;1719913;83;25683;-56
2024/01/15 11:13:22;;;;;;;18.20;7.78;;;;;;;1.05;94.72;97640.32;1719904;83;25479;-54
2024/01/15 11:16:08;;;;;;;10.70;7.12;;;;;;;1.06;94.09;97649.11;1720006;83;27396;-57
2024/01/15 11:18:58;;;;;;;12.78;7.58;;;;;;;1.00;93.08;97641.80;1719850;83;25647;-55